Airfield :







YOU CAN JOIN US ON...

 
LOGIN :

Register | Disclaimer

   EN    FR    IT 

 









Legend :    VFR   Marginal VFR   IFR   Intensive IFR   Very Intensive IFR
Visi :
Ceiling :
>= 8 km
>= 3000ft
5 to 8 km
1000 to 3000 ft
1500m to 5 km
500 to 1000 ft
800 to 1500m
200 to 500 ft
< 800m
< 200 ft
Symbols :   Thunderstorms  Fog  Heavy snow  Heavy precipitations  Wind > 20 kt






- Airport Elevation : 48 ft
- IATA code : REK


BIRK - Reykjavik

CURRENT METAR :
  • 010500Z 27015KT 9999 FEW017 SCT026 02/M01 Q1013

EXPIRED METARs :
  • 010400Z 33003KT 300V360 9999 FEW016 SCT035 BKN043 01/M02 Q1014
  • 010300Z 27016KT 9999 FEW018 SCT038 BKN046 01/M02 Q1015

TAF TAF BIRK
Valid from the 01 at 03:00 until the 02 at 03:00 UTC


010156Z 0103/0203 28016KT 9999 -SHRA SCT015 BKN025 TX02/0106Z TNM02/0123Z
PROB30
TEMPO 0103/0106 3000 SHSN BKN015
BECMG 0104/0106 27020G30KT -SHSN
BECMG 0107/0109 26032G45KT
TEMPO 0112/0203 1500 SHSN BKN013
BECMG 0114/0116 30025G35KT
BECMG 0118/0120 34018KT
BECMG 0201/0203 34027G37KT



MET'MAP, your aeronautical weather chart ! - Copyright ORBIFLY December 2007 - Disclaimer

ORBIFLY MET'MAP TEAM :

Programming & Development : Alexandra Zaïnal
Concept & original design : Baudouin d'Aumeries
Assistance for programming : Marc-Olivier Méhu
Technical & hardware support : Manuel Goepfert

Contact : metmap@orbifly.com




SOURCES & CREDITS :

   NOAA